»·PEaware :: N757VB KBFL-KMHV

N757VB :: KBFL-KMHV

FLIGHT INFORMATION

Flight Status: Arrived
Operator: Privately registered:
United States
More flights under this callsign
Pilot: Daniel P. (20103)
Aircraft: CESSNA 182 SKYLANE
(C182)
More flights by this aircraft type
Origin: KBFL Meadows
United States
Destination: KMHV Mojave
United States
More flights between these airports :: More routes between these airports
Route: DCT
File this flight plan on PilotEdge
Remarks: cat 6 rating
Altitude:
(Current/Filed)
7,500ft
Speed:
(Current/Filed)
120kts
Departed: 19-Sep-18 11:33 AM
Arrived: 19-Sep-18 12:06 PM
Distance/Time
Traveled:
51nm/0:33
Distance/Time
To Go:
Arrived

Flight Plot

Page will automatically refresh every two minutes.


Map Options




Map Legend


Flown Route
Filed Route
Departure Airport
Arrival Airport
Navaid (VOR, NDB)
Fix

Horizontal Profiles

Position Reports

Time Latitude Longitude Heading Altitude Ground
Speed
19-Sep-18 11:08 35.426247 -119.042023 359 510ft 0kts
19-Sep-18 11:09 35.426247 -119.042023 359 510ft 0kts
19-Sep-18 11:10 35.426247 -119.042023 359 510ft 0kts
19-Sep-18 11:11 35.426247 -119.042023 359 510ft 0kts
19-Sep-18 11:12 35.426247 -119.042023 359 510ft 0kts
19-Sep-18 11:13 35.426247 -119.042023 359 510ft 0kts
19-Sep-18 11:14 35.426247 -119.042023 359 510ft 0kts
19-Sep-18 11:15 35.426247 -119.042023 359 510ft 0kts
19-Sep-18 11:16 35.426247 -119.042023 359 510ft 0kts
19-Sep-18 11:17 35.426249 -119.042023 359 510ft 0kts
19-Sep-18 11:18 35.426251 -119.042023 359 510ft 0kts
19-Sep-18 11:19 35.426253 -119.042023 359 510ft 0kts
19-Sep-18 11:20 35.426254 -119.042023 359 510ft 0kts
19-Sep-18 11:21 35.426255 -119.042023 359 510ft 0kts
19-Sep-18 11:22 35.426256 -119.042023 359 510ft 0kts
19-Sep-18 11:23 35.426257 -119.042023 359 510ft 0kts
19-Sep-18 11:24 35.426258 -119.042023 359 510ft 0kts
19-Sep-18 11:25 35.426259 -119.042023 359 510ft 0kts
19-Sep-18 11:26 35.426260 -119.042023 359 510ft 0kts
19-Sep-18 11:27 35.426282 -119.042025 355 510ft 1kts
19-Sep-18 11:28 35.426601 -119.044068 264 510ft 5kts
19-Sep-18 11:29 35.426305 -119.045290 189 510ft 0kts
19-Sep-18 11:30 35.426301 -119.045291 189 510ft 0kts
19-Sep-18 11:31 35.426296 -119.045292 189 510ft 0kts
19-Sep-18 11:32 35.426293 -119.045293 189 510ft 0kts
19-Sep-18 11:33 35.426290 -119.045293 189 510ft 0kts
19-Sep-18 11:34 35.425808 -119.046475 309 510ft 11kts
19-Sep-18 11:35 35.436854 -119.059654 316 1073ft 70kts
19-Sep-18 11:36 35.454280 -119.081302 330 2008ft 94kts
19-Sep-18 11:37 35.473056 -119.069173 93 3054ft 100kts
19-Sep-18 11:38 35.460357 -119.035849 118 3532ft 105kts
19-Sep-18 11:39 35.447036 -119.005557 106 3875ft 98kts
19-Sep-18 11:40 35.434751 -118.976568 110 4231ft 94kts
19-Sep-18 11:41 35.422527 -118.948933 98 4568ft 89kts
19-Sep-18 11:42 35.409277 -118.921594 118 5010ft 104kts
19-Sep-18 11:43 35.398042 -118.890409 107 5863ft 105kts
19-Sep-18 11:44 35.385951 -118.855473 110 6486ft 121kts
19-Sep-18 11:45 35.371081 -118.818521 110 7203ft 122kts
19-Sep-18 11:46 35.357986 -118.779905 114 7634ft 134kts
19-Sep-18 11:47 35.334186 -118.739987 120 7552ft 150kts
19-Sep-18 11:48 35.311481 -118.696448 121 7498ft 155kts
19-Sep-18 11:49 35.287527 -118.652859 119 7327ft 161kts
19-Sep-18 11:50 35.262604 -118.612688 128 7630ft 143kts
19-Sep-18 11:51 35.234978 -118.576757 120 7853ft 145kts
19-Sep-18 11:52 35.204963 -118.539812 136 7789ft 162kts
19-Sep-18 11:53 35.178572 -118.495332 122 7560ft 170kts
19-Sep-18 11:54 35.150795 -118.448996 124 7305ft 153kts
19-Sep-18 11:55 35.131189 -118.404994 112 7270ft 140kts
19-Sep-18 11:56 35.112891 -118.364845 120 7451ft 132kts
19-Sep-18 11:57 35.094879 -118.323463 111 7374ft 141kts
19-Sep-18 11:58 35.081035 -118.275826 105 6827ft 152kts
19-Sep-18 11:59 35.064276 -118.231437 131 5367ft 145kts
19-Sep-18 12:00 35.045114 -118.197824 135 4286ft 90kts
19-Sep-18 12:01 35.027626 -118.177130 116 3757ft 93kts
19-Sep-18 12:02 35.020382 -118.148240 94 3717ft 83kts
19-Sep-18 12:03 35.025332 -118.127087 2 3766ft 82kts
19-Sep-18 12:04 35.042848 -118.128684 325 3093ft 58kts
19-Sep-18 12:05 35.056105 -118.135029 230 2799ft 68kts
19-Sep-18 12:08 35.055973 -118.135253 0 2760ft 0kts

Navigation Log

Ident Type
1. KBFL Airport
2. KMHV Airport